Track Сазыкин Герман

Time Latitude Longitude Accuracy (66% radius in meters) Altitude (meters) Speed (km/hour) Bearing (degrees) Battery (%) GPS flag
10:03:36 60.370945 29.556495 8 79.320180454466 0 299.7492980957 89 1 delete
10:03:27 60.370945 29.556495 6 79.618427615863 0 299.7492980957 89 1 delete
10:03:15 60.370945 29.556495 6 79.875998212069 0 299.7492980957 89 1 delete
10:03:03 60.370945 29.556495 12 79.981779006504 0 299.7492980957 89 1 delete
10:02:51 60.370945 29.556495 6 80.018486139102 0 299.7492980957 89 1 delete
10:02:39 60.370945 29.556495 8 79.933165451912 0 299.7492980957 89 1 delete
10:02:33 60.370945 29.556495 8 79.923857644172 0 299.7492980957 89 1 delete
10:02:30 60.370889 29.556604 8 79.752115967284 0 299.7492980957 89 1 delete
10:02:18 60.370889 29.556604 16 79.29603773276 0 299.7492980957 89 1 delete
10:02:06 60.370889 29.556604 16 79.511597544233 1.2613636255264 299.7492980957 89 1 delete
10:02:00 60.370833 29.556696 8 79.715067558379 0 326.84939575195 89 1 delete
10:01:54 60.370789 29.556769 8 80.394507727665 1.4024401903152 334.18557739258 89 1 delete
10:01:45 60.370731 29.556821 6 80.884569210374 0 308.32632446289 89 1 delete
10:01:33 60.370731 29.556821 6 80.988881142132 0 308.32632446289 89 1 delete
10:01:21 60.370731 29.556821 6 80.909584971734 0 308.32632446289 89 1 delete
10:01:12 60.370731 29.556821 8 81.253515020537 1.8682804107666 308.32632446289 89 1 delete
10:01:09 60.370676 29.557047 8 82.41191866576 6.5114278793335 303.3440246582 89 1 delete
10:01:06 60.370644 29.557322 12 82.471057606859 5.9032225608826 250.46112060547 89 1 delete
10:01:03 60.370781 29.557424 6 82.4784338118 7.5398030281067 158.35118103027 89 1 delete
10:01:00 60.370976 29.557178 8 83.928061853821 7.7431716918945 139.40298461914 89 1 delete
10:00:57 60.371142 29.557059 8 81.912253468436 5.4188380241394 183.29150390625 89 1 delete
10:00:54 60.371208 29.557221 8 81.522222008629 6.454761505127 312.21841430664 89 1 delete
10:00:51 60.371069 29.557557 8 82.967123156724 7.0421557426453 308.42098999023 89 1 delete
10:00:48 60.370916 29.557922 8 86.789482129251 6.076934337616 316.27520751953 89 1 delete
10:00:45 60.370712 29.558258 12 89.818651897158 5.5835995674133 319.39837646484 89 1 delete
10:00:42 60.370471 29.558484 12 91.601016765519 4.9293184280396 350.27383422852 89 1 delete
10:00:39 60.370273 29.558595 8 90.46245646005 4.2286906242371 331.73263549805 89 1 delete
10:00:36 60.370128 29.558669 8 87.319251175353 4.0309562683105 28.982667922974 89 1 delete
10:00:33 60.370001 29.558622 8 87.13354056657 3.9900221824646 10.947964668274 89 1 delete
10:00:30 60.369884 29.558697 12 87.495489168298 4.230890750885 333.62118530273 89 1 delete
10:00:27 60.369772 29.558753 12 88.060962064919 4.4362063407898 341.57293701172 89 1 delete
10:00:24 60.369593 29.558851 8 90.609546444166 4.176342010498 345.16021728516 89 1 delete
10:00:21 60.369472 29.558946 8 93.335709129294 4.0100054740906 327.52813720703 89 1 delete
10:00:18 60.369354 29.559056 8 95.892023796017 3.9416313171387 334.6357421875 89 1 delete
10:00:15 60.369204 29.559134 12 96.204224388909 4.0445590019226 287.42776489258 89 1 delete
10:00:12 60.369180 29.559389 8 97.148182657116 3.8712508678436 284.70883178711 89 1 delete
10:00:09 60.369113 29.559688 8 98.965682616268 3.4838082790375 314.39517211914 89 1 delete
10:00:06 60.369007 29.559761 8 98.966288162042 3.235036611557 14.44397354126 89 1 delete
10:00:03 60.368898 29.559745 12 98.903560683285 3.2073400020599 334.17135620117 89 1 delete
10:00:00 60.368823 29.559834 12 98.856109387348 3.4240710735321 333.33450317383 89 1 delete
09:59:57 60.368763 29.559908 8 99.097087071708 0 331.42492675781 89 1 delete
09:59:54 60.368694 29.559949 8 99.094063842032 4.0840229988098 10.354733467102 89 1 delete
09:59:51 60.368590 29.559861 8 97.460425197467 4.0795001983643 38.972820281982 89 1 delete
09:59:48 60.368476 29.559739 8 97.524963338815 3.9654784202576 25.627645492554 89 1 delete
09:59:45 60.368353 29.559618 8 97.142762640145 4.0224876403809 26.087413787842 89 1 delete
09:59:42 60.368211 29.559473 8 96.72711148568 3.8691711425781 15.055151939392 89 1 delete
09:59:39 60.368062 29.559388 8 96.100053220707 3.8915295600891 22.331964492798 89 1 delete
09:59:36 60.367932 29.559298 8 95.516300351781 3.9626631736755 7.2564244270325 89 1 delete
09:59:33 60.367802 29.559193 8 95.484606547242 4.0107026100159 43.280624389648 89 1 delete
09:59:30 60.367663 29.559157 8 94.949706786419 3.8807697296143 353.00048828125 89 1 delete